Camas, Washington
Current Conditions -  °F | °C
As of 7:53 PM on Tuesday 25 Nov 2014 (Local Time) from KTTD Reporting Station
Overcast Overcast  
Wind Chill: 60°   Ceiling: 6000
Heat Index: 60°   Visibility: 10mi
Dew Point: 54°   Wind: 8mph
Humidity: 80%   Direction: 230°SW
Pressure: 30.28"   Gusts: NA
Location:  45.59°N, 122.4°W
Report Text: KTTD 260353Z 23007KT 10SM OVC060 16/12 A3028 RMK AO2 SLP253 T01560122
Loading
Personal Weather Stations






























Interactive Weather Map New forecast layout! Learn more

10-Day Weather Forecast

Advertisements
Track Severe Weather on mobile